Terminal Aerodrome Forecast
Issued by NWS Northern Indiana

Home | Current Version | Previous Version | Text Only | Print | Product List | Glossary On
Versions: 1 2 3 4 5 6 7 8 9 10 11 12 13 14 15
511
FTUS43 KIWX 112339
TAFFWA
TAF
KFWA 112339Z 1200/1224 25007KT P6SM SCT050 BKN250
     FM121600 27013G21KT P6SM BKN030
     FM121800 27015G26KT 3SM -SHSN BKN025 OVC040
     FM122100 29016G29KT 3SM -SHSN OVC020=

USA.gov is the U.S. government's official web portal to all federal, state and local government web resources and services.